Time;durP1;ratioP1;P1;durP2;ratioP2;P2;SDS_P1;SDS_P2;PMS_P1;PMS_P2;Temp;Humidity;BMP_temperature;BMP_pressure;BME280_temperature;BME280_humidity;BME280_pressure;Samples;Min_cycle;Max_cycle;Signal;HPM_P1;HPM_P2
2021/11/21 00:00:02;;;;;;;20.48;13.02;;;;;;;0.85;100.00;93368.78;5031503;28;20056;-81
2021/11/21 00:02:29;;;;;;;16.65;11.50;;;;;;;1.08;100.00;93431.56;5031565;28;20068;-81
2021/11/21 00:04:55;;;;;;;18.52;11.25;;;;;;;1.14;100.00;93449.50;5031271;28;20059;-81
2021/11/21 00:07:22;;;;;;;13.85;9.77;;;;;;;1.03;100.00;93429.50;5031066;28;20061;-81
2021/11/21 00:09:50;;;;;;;16.45;11.27;;;;;;;1.21;100.00;93457.31;5031560;28;20053;-81
2021/11/21 00:12:17;;;;;;;15.98;10.93;;;;;;;1.22;100.00;93458.91;5031197;28;20464;-81
2021/11/21 00:14:46;;;;;;;18.60;11.60;;;;;;;1.24;100.00;93467.13;5030913;28;20050;-81
2021/11/21 00:17:13;;;;;;;14.38;10.35;;;;;;;1.15;100.00;93466.28;5031057;28;20060;-81
2021/11/21 00:19:41;;;;;;;11.65;9.00;;;;;;;1.09;100.00;93458.47;5031107;28;20056;-81
2021/11/21 00:22:09;;;;;;;15.55;13.23;;;;;;;1.06;100.00;93454.47;5030902;28;20057;-80
2021/11/21 00:24:38;;;;;;;18.38;13.65;;;;;;;1.09;100.00;93450.88;5031142;28;20041;-81
2021/11/21 00:27:05;;;;;;;21.50;13.48;;;;;;;0.99;100.00;93431.53;5031159;28;20389;-81
2021/11/21 00:29:32;;;;;;;18.70;14.15;;;;;;;1.12;100.00;93458.19;5031453;28;20050;-81
2021/11/21 00:32:01;;;;;;;18.83;14.02;;;;;;;1.08;100.00;93452.63;5030964;28;20827;-81
2021/11/21 00:34:28;;;;;;;20.95;14.10;;;;;;;1.03;100.00;93455.56;5031102;28;20057;-80
2021/11/21 00:36:54;;;;;;;18.17;13.63;;;;;;;0.85;100.00;93426.97;5030819;28;20045;-81
2021/11/21 00:39:21;;;;;;;20.02;13.55;;;;;;;0.92;100.00;93438.06;5031023;28;20064;-80
2021/11/21 00:41:48;;;;;;;16.25;11.35;;;;;;;0.83;100.00;93423.78;5030778;28;20049;-80
2021/11/21 00:44:15;;;;;;;32.17;19.33;;;;;;;0.91;100.00;93439.03;5031332;28;20072;-80
2021/11/21 00:46:42;;;;;;;42.58;27.13;;;;;;;0.75;100.00;93427.81;5030720;28;20064;-80
2021/11/21 00:49:15;;;;;;;45.40;26.67;;;;;;;0.62;100.00;93422.31;5030636;28;20489;-81
2021/11/21 00:51:42;;;;;;;40.60;25.27;;;;;;;0.47;100.00;93424.56;5030663;28;20049;-81
2021/11/21 00:54:21;;;;;;;42.53;24.90;;;;;;;0.36;100.00;93423.81;5030677;28;20045;-80
2021/11/21 00:56:48;;;;;;;39.95;24.73;;;;;;;0.26;100.00;93401.13;5030535;28;20496;-80
2021/11/21 00:59:19;;;;;;;34.80;21.50;;;;;;;0.42;100.00;93411.53;5030836;28;20042;-80
2021/11/21 01:01:46;;;;;;;32.70;21.25;;;;;;;0.48;100.00;93416.03;5030653;28;21183;-79
2021/11/21 01:04:14;;;;;;;43.53;23.58;;;;;;;0.53;100.00;93409.63;5030367;28;20061;-80
2021/11/21 01:06:41;;;;;;;33.08;22.50;;;;;;;0.56;100.00;93405.22;5030170;28;20053;-80
2021/11/21 01:09:08;;;;;;;32.25;21.92;;;;;;;0.51;100.00;93403.91;5030445;28;20052;-80
2021/11/21 01:11:35;;;;;;;44.22;28.10;;;;;;;0.46;100.00;93400.22;5030287;28;20421;-79
2021/11/21 01:14:02;;;;;;;63.00;36.15;;;;;;;0.18;100.00;93380.81;5029966;28;20060;-80
2021/11/21 01:16:29;;;;;;;91.18;52.22;;;;;;;0.27;100.00;93394.31;5030172;28;20507;-81
2021/11/21 01:18:56;;;;;;;83.22;45.13;;;;;;;0.18;100.00;93372.47;5030497;28;20045;-81
2021/11/21 01:21:24;;;;;;;72.85;41.75;;;;;;;0.33;100.00;93382.88;5030099;28;20049;-80
2021/11/21 01:23:51;;;;;;;49.17;30.88;;;;;;;0.46;100.00;93387.59;5030291;28;20436;-80
2021/11/21 01:26:18;;;;;;;44.92;28.08;;;;;;;0.47;100.00;93387.41;5029470;28;20424;-80
2021/11/21 01:28:45;;;;;;;33.05;22.70;;;;;;;0.42;100.00;93376.16;5030570;28;20050;-80
2021/11/21 01:31:12;;;;;;;32.53;21.55;;;;;;;0.23;100.00;93345.03;5030087;28;20540;-79
2021/11/21 01:33:39;;;;;;;31.73;23.55;;;;;;;0.34;100.00;93360.00;5029755;28;20057;-80
2021/11/21 01:36:06;;;;;;;27.00;20.67;;;;;;;0.49;100.00;93379.69;5029865;28;20064;-80
2021/11/21 01:38:35;;;;;;;23.65;15.88;;;;;;;0.43;100.00;93388.66;5029904;28;20046;-79
2021/11/21 01:41:02;;;;;;;22.50;15.13;;;;;;;0.40;100.00;93386.41;5030009;28;20111;-80
2021/11/21 01:43:29;;;;;;;24.35;18.33;;;;;;;0.43;100.00;93375.22;5029961;28;20052;-79
2021/11/21 01:45:56;;;;;;;29.48;22.25;;;;;;;0.42;100.00;93376.97;5029487;28;20068;-79
2021/11/21 01:48:23;;;;;;;29.17;22.67;;;;;;;0.43;100.00;93377.75;5029323;28;20489;-79
2021/11/21 01:50:51;;;;;;;27.40;20.70;;;;;;;0.43;100.00;93376.03;5029695;28;20056;-79
2021/11/21 01:53:18;;;;;;;25.27;17.52;;;;;;;0.42;100.00;93371.91;5029412;28;20052;-79
2021/11/21 01:55:47;;;;;;;24.13;16.38;;;;;;;0.17;100.00;93325.38;5029149;28;20520;-79
2021/11/21 01:58:14;;;;;;;22.08;16.17;;;;;;;0.43;100.00;93370.16;5029728;28;20059;-79
2021/11/21 02:00:44;;;;;;;20.77;16.65;;;;;;;0.41;100.00;93367.00;5029485;28;20045;-79
2021/11/21 02:03:11;;;;;;;22.17;15.68;;;;;;;0.30;100.00;93361.22;5029539;28;20055;-79
2021/11/21 02:05:38;;;;;;;20.20;13.50;;;;;;;0.32;100.00;93366.91;5029345;28;20045;-79
2021/11/21 02:08:05;;;;;;;21.92;14.43;;;;;;;0.21;100.00;93365.38;5029354;28;20405;-79
2021/11/21 02:10:34;;;;;;;21.48;14.35;;;;;;;0.11;100.00;93359.59;5029764;28;20412;-79
2021/11/21 02:13:05;;;;;;;24.98;16.58;;;;;;;0.00;100.00;93358.06;5029612;28;20111;-79
2021/11/21 02:15:32;;;;;;;22.30;15.35;;;;;;;0.08;100.00;93363.19;5029344;28;20064;-79
2021/11/21 02:17:59;;;;;;;27.25;18.05;;;;;;;0.04;100.00;93353.53;5029342;28;20050;-79
2021/11/21 02:20:44;;;;;;;32.00;19.85;;;;;;;-0.14;100.00;93329.81;5029326;28;20057;-79
2021/11/21 02:23:12;;;;;;;29.50;17.75;;;;;;;0.10;100.00;93363.06;5029310;28;20052;-79
2021/11/21 02:25:40;;;;;;;28.95;17.00;;;;;;;-0.04;100.00;93334.03;5029014;28;20061;-79
2021/11/21 02:28:07;;;;;;;26.60;17.48;;;;;;;0.11;100.00;93352.81;5029240;28;20129;-79
2021/11/21 02:30:34;;;;;;;21.38;14.50;;;;;;;0.14;100.00;93366.91;5028064;28;20046;-79
2021/11/21 02:33:02;;;;;;;23.23;14.82;;;;;;;0.11;100.00;93362.13;5029112;28;20414;-79
2021/11/21 02:35:30;;;;;;;21.35;14.55;;;;;;;-0.06;100.00;93344.25;5028939;28;20053;-79
2021/11/21 02:37:57;;;;;;;19.65;12.95;;;;;;;-0.18;100.00;93320.16;5033344;28;20045;-79
2021/11/21 02:40:23;;;;;;;17.50;12.35;;;;;;;0.02;100.00;93351.13;5033153;28;20042;-79
2021/11/21 02:42:50;;;;;;;20.02;13.30;;;;;;;-0.06;100.00;93339.22;5033147;28;20053;-79
2021/11/21 02:45:19;;;;;;;17.30;12.05;;;;;;;-0.23;100.00;93329.88;5032910;28;20041;-79
2021/11/21 02:47:47;;;;;;;16.00;10.10;;;;;;;-0.29;100.00;93329.50;5032866;28;20482;-80
2021/11/21 02:50:17;;;;;;;16.90;11.02;;;;;;;-0.15;100.00;93343.38;5032501;28;20054;-80
2021/11/21 02:52:46;;;;;;;16.48;12.20;;;;;;;-0.27;100.00;93330.13;5032634;28;20523;-80
2021/11/21 02:55:13;;;;;;;26.75;13.30;;;;;;;-0.19;100.00;93336.22;5032626;28;20049;-80
2021/11/21 02:57:40;;;;;;;32.97;17.02;;;;;;;-0.21;100.00;93333.03;5032974;28;20072;-81
2021/11/21 03:00:09;;;;;;;37.70;18.15;;;;;;;-0.57;100.00;93280.72;5032974;28;20419;-80
2021/11/21 03:02:39;;;;;;;50.85;23.08;;;;;;;-0.22;100.00;93342.34;5033030;28;20528;-79
2021/11/21 03:05:07;;;;;;;48.78;23.85;;;;;;;-0.29;100.00;93321.13;5033160;28;20049;-79
2021/11/21 03:07:34;;;;;;;50.45;23.63;;;;;;;-0.14;100.00;93336.59;5032951;28;20060;-80
2021/11/21 03:10:02;;;;;;;47.63;22.52;;;;;;;-0.14;100.00;93334.06;5033072;28;20069;-81
2021/11/21 03:12:29;;;;;;;42.28;21.08;;;;;;;-0.22;100.00;93332.25;5032930;28;20053;-80
2021/11/21 03:14:56;;;;;;;36.17;21.73;;;;;;;-0.24;100.00;93338.38;5033252;28;20053;-80
2021/11/21 03:17:23;;;;;;;46.90;25.98;;;;;;;-0.30;100.00;93332.16;5032354;28;20408;-80
2021/11/21 03:19:51;;;;;;;41.58;24.58;;;;;;;-0.36;100.00;93315.03;5032631;28;20053;-79
2021/11/21 03:22:18;;;;;;;49.50;28.13;;;;;;;-0.40;100.00;93304.44;5032466;28;20045;-79
2021/11/21 03:24:45;;;;;;;48.90;25.42;;;;;;;-0.15;100.00;93333.28;5008049;28;20045;-80
2021/11/21 03:27:14;;;;;;;53.33;25.42;;;;;;;-0.09;100.00;93331.13;5032460;28;21323;-80
2021/11/21 03:29:41;;;;;;;45.35;24.00;;;;;;;-0.02;100.00;93334.66;5032167;28;20052;-79
2021/11/21 03:32:09;;;;;;;42.15;23.05;;;;;;;-0.01;100.00;93334.53;5032213;28;20054;-80
2021/11/21 03:34:38;;;;;;;28.60;18.35;;;;;;;-0.14;100.00;93334.88;5032221;28;20052;-80
2021/11/21 03:37:05;;;;;;;37.22;20.83;;;;;;;-0.07;100.00;93337.63;5031859;28;20136;-80
2021/11/21 03:39:32;;;;;;;34.38;21.60;;;;;;;0.05;100.00;93334.91;5032212;28;20134;-79
2021/11/21 03:41:59;;;;;;;40.08;22.80;;;;;;;0.17;100.00;93336.28;5031843;28;20448;-79
2021/11/21 03:44:27;;;;;;;42.55;22.10;;;;;;;0.23;100.00;93333.19;5031877;28;20057;-78
2021/11/21 03:46:54;;;;;;;43.63;22.55;;;;;;;0.30;100.00;93333.41;5031559;28;20046;-79
2021/11/21 03:49:21;;;;;;;38.33;20.02;;;;;;;0.17;100.00;93305.16;5031030;28;20056;-80
2021/11/21 03:51:48;;;;;;;39.38;20.20;;;;;;;0.39;100.00;93341.88;5031601;28;20501;-79
2021/11/21 03:54:16;;;;;;;33.28;16.88;;;;;;;0.44;100.00;93329.59;5031747;28;20045;-79
2021/11/21 03:56:43;;;;;;;25.05;14.88;;;;;;;0.47;100.00;93341.91;5031535;28;20057;-78
2021/11/21 03:59:10;;;;;;;31.05;16.88;;;;;;;0.50;100.00;93335.78;5031520;28;20535;-80
2021/11/21 04:01:38;;;;;;;27.08;15.93;;;;;;;0.48;100.00;93319.97;5031414;28;20511;-80
2021/11/21 04:04:07;;;;;;;31.55;17.67;;;;;;;0.53;100.00;93331.25;5031648;28;20492;-79
2021/11/21 04:06:34;;;;;;;33.42;18.13;;;;;;;0.40;100.00;93310.59;5031390;28;20093;-80
2021/11/21 04:09:01;;;;;;;36.38;20.73;;;;;;;0.55;100.00;93330.31;5031152;28;20143;-81
2021/11/21 04:11:30;;;;;;;45.42;26.10;;;;;;;0.53;100.00;93343.91;5031275;28;20057;-81
2021/11/21 04:13:57;;;;;;;45.78;25.17;;;;;;;0.51;100.00;93348.28;5028659;28;20059;-80
2021/11/21 04:16:24;;;;;;;31.10;20.60;;;;;;;0.19;100.00;93299.03;5028818;28;20140;-80
2021/11/21 04:18:52;;;;;;;40.20;19.95;;;;;;;0.20;100.00;93325.09;5030285;28;20046;-81
2021/11/21 04:21:19;;;;;;;40.55;21.48;;;;;;;0.28;100.00;93340.34;5030896;28;20052;-81
2021/11/21 04:23:46;;;;;;;47.85;22.65;;;;;;;0.26;100.00;93348.06;5030995;28;20053;-80
2021/11/21 04:26:13;;;;;;;45.28;22.63;;;;;;;0.37;100.00;93356.38;5031208;28;20053;-80
2021/11/21 04:28:40;;;;;;;46.65;22.30;;;;;;;0.43;100.00;93348.22;5030833;28;20049;-80
2021/11/21 04:31:06;;;;;;;51.10;26.10;;;;;;;0.23;100.00;93314.72;5031398;28;20394;-80
2021/11/21 04:33:33;;;;;;;54.58;29.33;;;;;;;0.39;100.00;93326.69;5030714;28;20409;-81
2021/11/21 04:36:02;;;;;;;79.38;38.88;;;;;;;0.53;100.00;93348.94;5030603;28;20524;-80
2021/11/21 04:38:28;;;;;;;100.18;42.88;;;;;;;0.43;100.00;93327.19;5031010;28;20045;-79
2021/11/21 04:40:55;;;;;;;93.03;41.53;;;;;;;0.48;100.00;93315.75;5030941;28;20408;-79
2021/11/21 04:43:22;;;;;;;71.93;33.45;;;;;;;0.50;100.00;93311.31;5030698;28;20492;-79
2021/11/21 04:45:50;;;;;;;70.95;31.73;;;;;;;0.69;100.00;93331.53;5030281;28;20092;-81
2021/11/21 04:48:18;;;;;;;80.55;34.58;;;;;;;0.63;100.00;93305.09;5030469;28;20049;-81
2021/11/21 04:50:45;;;;;;;71.80;29.52;;;;;;;0.54;100.00;93296.66;5030295;28;20046;-83
2021/11/21 04:53:13;;;;;;;56.30;25.83;;;;;;;0.86;100.00;93338.31;5006184;28;20046;-83
2021/11/21 04:55:40;;;;;;;53.58;24.85;;;;;;;0.73;100.00;93313.38;5030187;28;20060;-83
2021/11/21 04:58:07;;;;;;;55.97;25.30;;;;;;;0.89;100.00;93337.22;5030417;28;20064;-83
2021/11/21 05:00:34;;;;;;;66.88;28.95;;;;;;;0.73;100.00;93307.53;5030573;28;20159;-83
2021/11/21 05:03:01;;;;;;;64.10;25.30;;;;;;;0.83;100.00;93317.56;5030598;28;20164;-82
2021/11/21 05:05:29;;;;;;;50.88;23.15;;;;;;;0.57;100.00;93277.88;5030480;28;20056;-82
2021/11/21 05:07:56;;;;;;;47.03;20.02;;;;;;;0.93;100.00;93321.59;5030358;28;20049;-82
2021/11/21 05:10:25;;;;;;;43.80;19.70;;;;;;;0.76;100.00;93308.06;5030316;28;20055;-81
2021/11/21 05:12:52;;;;;;;45.83;21.52;;;;;;;0.64;100.00;93276.34;5027410;28;20049;-82
2021/11/21 05:15:22;;;;;;;50.33;22.20;;;;;;;0.82;100.00;93311.72;5028529;28;20144;-81
2021/11/21 05:17:49;;;;;;;48.60;21.52;;;;;;;0.83;100.00;93318.34;5029237;28;20409;-82
2021/11/21 05:20:17;;;;;;;43.38;19.70;;;;;;;0.71;100.00;93317.81;5029837;28;20055;-82
2021/11/21 05:22:45;;;;;;;38.22;17.50;;;;;;;0.63;100.00;93320.25;5027491;28;20085;-81
2021/11/21 05:25:12;;;;;;;46.70;20.30;;;;;;;0.62;100.00;93321.19;5023702;28;20058;-81
2021/11/21 05:27:43;;;;;;;49.72;21.80;;;;;;;0.42;100.00;93297.81;5025450;28;20485;-81
2021/11/21 05:30:13;;;;;;;51.42;20.80;;;;;;;0.61;100.00;93329.72;5025180;28;20511;-80
2021/11/21 05:32:40;;;;;;;44.15;19.90;;;;;;;0.43;100.00;93294.34;5025308;28;20049;-80
2021/11/21 05:35:07;;;;;;;41.35;19.83;;;;;;;0.49;100.00;93308.94;5026394;28;20037;-80
2021/11/21 05:37:36;;;;;;;49.55;22.27;;;;;;;0.60;100.00;93316.28;5026290;28;20053;-80
2021/11/21 05:40:04;;;;;;;48.88;24.75;;;;;;;0.42;100.00;93321.38;5026038;28;20053;-80
2021/11/21 05:42:31;;;;;;;55.22;26.60;;;;;;;0.36;100.00;93310.09;5025806;28;20412;-80
2021/11/21 05:44:59;;;;;;;57.80;26.30;;;;;;;0.34;100.00;93303.59;5025972;28;20052;-80
2021/11/21 05:47:26;;;;;;;70.85;29.88;;;;;;;0.16;100.00;93296.00;5025070;28;20041;-81
2021/11/21 05:49:54;;;;;;;69.20;31.95;;;;;;;0.17;100.00;93307.69;5025289;28;20064;-81
2021/11/21 05:52:21;;;;;;;56.45;29.20;;;;;;;0.24;100.00;93324.66;5025436;28;20052;-81
2021/11/21 05:54:47;;;;;;;58.53;29.38;;;;;;;0.12;100.00;93321.56;5025026;28;20052;-81
2021/11/21 05:57:14;;;;;;;64.35;29.90;;;;;;;0.04;100.00;93318.16;5025125;28;20068;-81
2021/11/21 05:59:42;;;;;;;58.63;26.63;;;;;;;-0.32;100.00;93293.66;5024773;28;20568;-81
2021/11/21 06:02:10;;;;;;;56.28;27.35;;;;;;;-0.25;100.00;93294.66;5024920;28;20045;-80
2021/11/21 06:04:37;;;;;;;56.22;27.30;;;;;;;-0.03;100.00;93321.25;5025457;28;20056;-81
2021/11/21 06:07:04;;;;;;;59.50;28.30;;;;;;;-0.12;100.00;93313.72;5024840;28;20054;-81
2021/11/21 06:09:31;;;;;;;60.25;29.63;;;;;;;0.03;100.00;93319.06;5025150;28;20129;-81
2021/11/21 06:11:58;;;;;;;61.88;28.17;;;;;;;-0.21;100.00;93301.03;5024325;28;20554;-80
2021/11/21 06:14:25;;;;;;;46.33;24.65;;;;;;;-0.32;100.00;93275.97;5024643;28;20148;-81
2021/11/21 06:16:52;;;;;;;42.90;23.70;;;;;;;-0.42;100.00;93263.38;5024876;28;20087;-81
2021/11/21 06:19:20;;;;;;;49.35;24.15;;;;;;;-0.29;100.00;93318.59;5024833;28;20056;-80
2021/11/21 06:21:47;;;;;;;44.60;25.13;;;;;;;-0.21;100.00;93301.03;5024986;28;20041;-80
2021/11/21 06:24:13;;;;;;;50.42;25.23;;;;;;;-0.32;100.00;93302.00;5024625;28;20045;-81
2021/11/21 06:26:42;;;;;;;63.25;24.70;;;;;;;-0.19;100.00;93316.81;5024962;28;20049;-81
2021/11/21 06:29:09;;;;;;;57.13;27.90;;;;;;;-0.12;100.00;93298.56;5024628;28;20140;-81
2021/11/21 06:31:37;;;;;;;58.88;28.52;;;;;;;-0.48;100.00;93234.47;5024465;28;20041;-81
2021/11/21 06:34:03;;;;;;;59.40;28.90;;;;;;;0.01;100.00;93285.59;5024520;28;20052;-81
2021/11/21 06:36:32;;;;;;;58.45;27.77;;;;;;;-0.02;100.00;93276.59;5024887;28;20057;-83
2021/11/21 06:38:59;;;;;;;69.43;29.08;;;;;;;-0.44;100.00;93240.84;5024316;28;20449;-82
2021/11/21 06:41:26;;;;;;;73.35;33.60;;;;;;;-0.25;100.00;93266.88;5024583;28;20131;-82
2021/11/21 06:43:53;;;;;;;66.35;29.48;;;;;;;-0.08;100.00;93295.63;5025154;28;20072;-82
2021/11/21 06:46:20;;;;;;;70.28;30.35;;;;;;;-0.10;100.00;93277.28;5024744;28;20045;-82
2021/11/21 06:48:47;;;;;;;75.93;33.00;;;;;;;-0.44;100.00;93229.94;5024781;28;20053;-83
2021/11/21 06:51:14;;;;;;;74.28;33.13;;;;;;;0.09;100.00;93266.28;5024567;28;20063;-81
2021/11/21 06:53:43;;;;;;;71.22;32.58;;;;;;;0.11;100.00;93258.56;5024734;28;20054;-83
2021/11/21 06:56:10;;;;;;;78.80;32.60;;;;;;;0.35;100.00;93279.91;5024838;28;20144;-82
2021/11/21 06:58:37;;;;;;;82.10;35.85;;;;;;;0.11;100.00;93239.16;5022739;28;20053;-82
2021/11/21 07:01:04;;;;;;;78.40;39.25;;;;;;;0.50;100.00;93275.13;5023145;28;20060;-82
2021/11/21 07:03:30;;;;;;;84.82;38.58;;;;;;;-0.16;100.00;93229.91;5023732;28;20046;-83
2021/11/21 07:05:57;;;;;;;85.57;38.75;;;;;;;0.20;100.00;93274.56;5025240;28;20505;-81
2021/11/21 07:08:24;;;;;;;86.50;40.03;;;;;;;0.34;100.00;93248.81;5025098;28;20061;-81
2021/11/21 07:10:52;;;;;;;83.60;40.92;;;;;;;0.67;100.00;93265.94;5025158;28;20052;-80
2021/11/21 07:13:21;;;;;;;81.35;39.03;;;;;;;0.77;100.00;93246.41;5024633;28;20038;-80
2021/11/21 07:15:48;;;;;;;80.82;38.88;;;;;;;0.77;100.00;93238.84;5024479;28;20041;-81
2021/11/21 07:18:15;;;;;;;78.45;42.10;;;;;;;1.26;100.00;93275.47;5024810;28;20057;-81
2021/11/21 07:20:41;;;;;;;73.53;32.28;;;;;;;1.21;100.00;93277.66;5025122;28;20084;-81
2021/11/21 07:23:11;;;;;;;85.82;36.22;;;;;;;1.01;100.00;93234.84;5025615;28;20049;-81
2021/11/21 07:25:38;;;;;;;85.88;41.33;;;;;;;1.05;100.00;93231.09;5028028;28;20099;-81
2021/11/21 07:28:06;;;;;;;83.35;40.30;;;;;;;0.70;100.00;93139.25;5028220;28;20083;-81
2021/11/21 07:30:35;;;;;;;97.28;43.72;;;;;;;1.46;100.00;93263.38;5028188;28;20049;-81
2021/11/21 07:33:02;;;;;;;96.65;44.67;;;;;;;1.44;100.00;93250.06;5027933;28;20049;-82
2021/11/21 07:35:29;;;;;;;83.35;36.30;;;;;;;1.24;100.00;93261.38;5028310;28;20053;-81
2021/11/21 07:37:56;;;;;;;93.43;41.53;;;;;;;1.23;100.00;93247.13;5027650;28;20045;-82
2021/11/21 07:40:22;;;;;;;93.47;38.83;;;;;;;1.06;100.00;93196.44;5027673;28;20049;-82
2021/11/21 07:42:49;;;;;;;82.90;39.50;;;;;;;1.51;100.00;93239.31;5027912;28;20061;-81
2021/11/21 07:45:18;;;;;;;81.72;37.63;;;;;;;1.67;100.00;93251.25;5028000;28;20053;-81
2021/11/21 07:47:46;;;;;;;87.70;41.85;;;;;;;1.76;100.00;93252.06;5027947;28;20053;-81
2021/11/21 07:50:14;;;;;;;82.82;40.35;;;;;;;1.65;100.00;93259.00;5028151;28;20328;-81
2021/11/21 07:52:41;;;;;;;80.15;40.67;;;;;;;1.83;100.00;93270.75;5027997;28;20574;-82
2021/11/21 07:55:09;;;;;;;88.40;40.47;;;;;;;1.79;100.00;93275.34;5027806;28;20383;-81
2021/11/21 07:57:36;;;;;;;86.38;42.28;;;;;;;1.80;100.00;93278.69;5028120;28;20068;-81
2021/11/21 08:00:06;;;;;;;70.45;32.63;;;;;;;1.30;100.00;93222.81;5027707;28;20485;-81
2021/11/21 08:02:35;;;;;;;71.13;35.45;;;;;;;1.49;100.00;93236.97;5026887;28;21519;-82
2021/11/21 08:05:01;;;;;;;68.15;35.85;;;;;;;1.80;100.00;93276.91;5027305;28;20046;-82
2021/11/21 08:07:28;;;;;;;69.75;34.72;;;;;;;1.50;100.00;93265.59;5027198;28;20092;-82
2021/11/21 08:09:55;;;;;;;64.80;36.17;;;;;;;1.63;100.00;93255.84;5026982;28;20045;-82
2021/11/21 08:12:23;;;;;;;68.50;34.03;;;;;;;1.98;100.00;93273.47;5027357;28;20049;-81
2021/11/21 08:14:50;;;;;;;57.90;30.02;;;;;;;1.87;100.00;93269.50;5026624;28;20536;-81
2021/11/21 08:17:17;;;;;;;54.72;30.17;;;;;;;1.95;100.00;93289.78;5026641;28;20049;-81
2021/11/21 08:19:46;;;;;;;49.05;26.52;;;;;;;2.08;100.00;93286.81;5027355;28;20049;-81
2021/11/21 08:22:12;;;;;;;35.92;22.65;;;;;;;2.01;100.00;93293.44;5027658;28;20417;-81
2021/11/21 08:24:39;;;;;;;38.55;22.02;;;;;;;2.07;100.00;93290.28;5027899;28;20041;-81
2021/11/21 08:27:06;;;;;;;43.35;22.23;;;;;;;2.14;100.00;93270.19;5026651;28;20057;-81
2021/11/21 08:29:33;;;;;;;50.15;25.55;;;;;;;2.28;100.00;93278.94;5026693;28;20056;-81
2021/11/21 08:32:01;;;;;;;39.95;20.58;;;;;;;2.03;100.00;93262.91;5026936;28;20048;-81
2021/11/21 08:34:28;;;;;;;41.30;19.98;;;;;;;2.31;100.00;93278.59;5026270;28;20140;-82
2021/11/21 08:36:57;;;;;;;37.40;20.75;;;;;;;2.13;100.00;93239.00;5026651;28;20084;-82
2021/11/21 08:39:24;;;;;;;39.10;21.40;;;;;;;2.17;100.00;93226.03;5026396;28;20049;-82
2021/11/21 08:41:52;;;;;;;41.40;22.33;;;;;;;2.66;100.00;93281.00;5026781;28;20049;-82
2021/11/21 08:44:19;;;;;;;40.33;20.05;;;;;;;1.83;100.00;93241.16;5026557;28;20080;-82
2021/11/21 08:46:47;;;;;;;50.00;26.10;;;;;;;1.80;100.00;93236.41;5026087;28;20049;-82
2021/11/21 08:49:14;;;;;;;49.10;23.02;;;;;;;1.62;100.00;93200.28;5027281;28;20060;-82
2021/11/21 08:51:43;;;;;;;54.85;26.08;;;;;;;1.65;100.00;93237.94;5027484;28;20057;-82
2021/11/21 08:54:11;;;;;;;74.47;36.30;;;;;;;1.95;100.00;93259.38;5026840;28;20049;-82
2021/11/21 08:56:40;;;;;;;64.65;30.27;;;;;;;1.70;100.00;93188.44;5026729;28;20443;-82
2021/11/21 08:59:07;;;;;;;56.10;27.65;;;;;;;2.12;100.00;93222.19;5026957;28;20077;-83
2021/11/21 09:01:34;;;;;;;57.95;30.42;;;;;;;2.20;100.00;93203.69;5026882;28;20053;-82
2021/11/21 09:04:01;;;;;;;71.32;35.95;;;;;;;2.44;100.00;93245.19;5026585;28;20057;-82
2021/11/21 09:06:28;;;;;;;77.50;39.70;;;;;;;2.09;100.00;93146.50;5026201;28;20448;-82
2021/11/21 09:08:55;;;;;;;77.93;38.42;;;;;;;2.96;100.00;93234.84;5025934;28;20421;-82
2021/11/21 09:11:24;;;;;;;63.42;35.78;;;;;;;3.23;100.00;93226.03;5025897;28;20140;-82
2021/11/21 09:13:50;;;;;;;57.90;31.65;;;;;;;3.09;100.00;93168.34;5025932;28;20041;-82
2021/11/21 09:16:18;;;;;;;59.17;32.72;;;;;;;3.16;100.00;93174.34;5026088;28;20057;-82
2021/11/21 09:18:45;;;;;;;54.08;31.58;;;;;;;3.79;100.00;93222.59;5026027;28;20052;-82
2021/11/21 09:21:12;;;;;;;63.15;32.38;;;;;;;3.81;100.00;93190.22;5026341;28;20053;-82
2021/11/21 09:23:39;;;;;;;53.85;28.73;;;;;;;3.41;100.00;93180.09;5025951;28;20539;-82
2021/11/21 09:26:06;;;;;;;52.97;27.52;;;;;;;3.80;100.00;93193.69;5026467;28;20064;-82
2021/11/21 09:28:35;;;;;;;51.15;26.20;;;;;;;3.86;100.00;93189.69;5026177;28;20045;-82
2021/11/21 09:31:02;;;;;;;43.95;24.70;;;;;;;4.18;100.00;93187.09;5025746;28;20058;-82
2021/11/21 09:33:29;;;;;;;43.83;24.05;;;;;;;4.15;100.00;93165.34;5025436;28;20045;-83
2021/11/21 09:35:56;;;;;;;50.83;25.95;;;;;;;4.30;100.00;93179.88;5025290;28;20056;-83
2021/11/21 09:38:24;;;;;;;49.65;26.02;;;;;;;4.00;100.00;93168.66;5025415;28;20064;-82
2021/11/21 09:40:52;;;;;;;56.42;27.80;;;;;;;3.30;100.00;93061.16;5024124;28;20127;-82
2021/11/21 09:43:19;;;;;;;59.83;28.83;;;;;;;4.04;100.00;93153.84;5025269;28;20067;-83
2021/11/21 09:45:48;;;;;;;58.20;27.65;;;;;;;4.23;100.00;93141.59;5024213;28;20042;-83
2021/11/21 09:48:15;;;;;;;55.60;28.60;;;;;;;4.17;100.00;93145.63;5025354;28;20056;-82
2021/11/21 09:50:44;;;;;;;53.45;27.58;;;;;;;4.48;100.00;93141.38;5025158;28;20056;-81
2021/11/21 09:53:13;;;;;;;50.00;27.85;;;;;;;4.66;100.00;93124.03;5025522;28;20058;-81
2021/11/21 09:55:41;;;;;;;57.78;28.13;;;;;;;4.81;100.00;93141.84;5025133;28;20057;-81
2021/11/21 09:58:08;;;;;;;62.25;30.65;;;;;;;5.02;100.00;93129.38;5025239;28;20247;-82
2021/11/21 10:00:36;;;;;;;70.63;34.13;;;;;;;5.18;100.00;93102.91;5025047;28;20405;-82
2021/11/21 10:03:07;;;;;;;78.15;36.08;;;;;;;4.97;100.00;93118.94;5024882;28;20061;-82
2021/11/21 10:05:36;;;;;;;72.25;33.95;;;;;;;4.95;100.00;93119.91;5024729;28;20047;-82
2021/11/21 10:08:09;;;;;;;63.03;33.03;;;;;;;5.04;100.00;93112.16;5025005;28;20049;-82
2021/11/21 10:10:39;;;;;;;58.30;31.33;;;;;;;5.35;100.00;93111.94;5024902;28;20615;-82
2021/11/21 10:13:21;;;;;;;58.88;30.95;;;;;;;5.21;100.00;93044.00;5024542;28;20045;-82
2021/11/21 10:15:48;;;;;;;57.85;28.50;;;;;;;5.87;100.00;93106.75;5024830;28;20053;-82
2021/11/21 10:18:17;;;;;;;56.63;30.65;;;;;;;6.10;100.00;93097.34;5025133;28;20080;-82
2021/11/21 10:20:44;;;;;;;55.55;30.45;;;;;;;5.82;100.00;93037.69;5024844;28;20087;-82
2021/11/21 10:23:11;;;;;;;61.40;33.35;;;;;;;6.34;100.00;93077.50;5020489;28;20057;-82
2021/11/21 10:25:44;;;;;;;59.65;32.00;;;;;;;6.68;100.00;93099.69;5023248;28;20037;-82
2021/11/21 10:28:18;;;;;;;59.38;32.33;;;;;;;6.68;100.00;93078.50;5024565;28;20062;-82
2021/11/21 10:31:05;;;;;;;64.80;33.35;;;;;;;6.72;100.00;93051.63;5024953;28;20053;-82
2021/11/21 10:33:35;;;;;;;53.13;27.70;;;;;;;7.11;100.00;93074.13;5025222;28;20053;-82
2021/11/21 10:36:04;;;;;;;47.78;28.67;;;;;;;7.33;100.00;93088.34;5024560;28;20057;-83
2021/11/21 10:38:37;;;;;;;49.78;28.42;;;;;;;7.51;100.00;93081.13;5024411;28;20513;-83
2021/11/21 10:41:10;;;;;;;42.67;24.75;;;;;;;7.22;100.00;93014.81;5024371;28;20052;-83
2021/11/21 10:43:48;;;;;;;20.45;13.23;;;;;;;7.94;100.00;93073.13;5024822;28;20041;-83
2021/11/21 10:46:27;;;;;;;15.68;7.80;;;;;;;8.08;100.00;93027.88;5024686;28;20045;-83
2021/11/21 10:48:56;;;;;;;24.45;14.55;;;;;;;8.26;100.00;93001.69;5024964;28;20434;-80
2021/11/21 10:51:24;;;;;;;13.73;7.43;;;;;;;8.98;99.71;93058.22;5024777;28;20050;-83
2021/11/21 10:53:52;;;;;;;18.75;6.97;;;;;;;9.18;98.02;93051.25;5024422;28;20046;-82
2021/11/21 10:56:19;;;;;;;13.65;7.45;;;;;;;9.40;95.55;93048.34;5024558;28;20041;-82
2021/11/21 10:58:49;;;;;;;15.85;8.02;;;;;;;9.48;93.91;93021.66;5027845;28;20063;-82
2021/11/21 11:01:22;;;;;;;12.50;7.55;;;;;;;9.71;92.66;93013.44;5028418;28;20064;-83
2021/11/21 11:04:13;;;;;;;12.23;7.60;;;;;;;10.03;92.17;93033.13;5028039;28;20100;-82
2021/11/21 11:06:42;;;;;;;12.80;6.63;;;;;;;10.14;91.55;93029.09;5027982;28;20038;-83
2021/11/21 11:09:16;;;;;;;13.88;8.85;;;;;;;10.18;89.94;93009.69;5028226;28;20045;-82
2021/11/21 11:11:45;;;;;;;23.88;12.48;;;;;;;10.05;89.25;92959.28;5027877;28;20057;-83
2021/11/21 11:14:18;;;;;;;26.17;13.80;;;;;;;10.59;88.53;93022.19;5027997;28;20041;-83
2021/11/21 11:16:47;;;;;;;14.70;7.18;;;;;;;10.74;86.75;93021.81;5028506;28;20049;-83
2021/11/21 11:19:16;;;;;;;16.20;8.98;;;;;;;10.79;87.14;93009.13;5027756;28;20081;-83